Portada
METAR-TAF:

METAR-TAF

Aeropuertos :

Aeropuerto de Saint-Étienne - Bouthéon

Saint-Etienne, Francia

latitud: 45-32N, longitud: 004-18E, altitud: 404 m

Observación

El informe se hizo hace 11 minutos, a las 18:30 UTC
Viento 6 kt del norte
Temperatura 26°C
Humedad 45%
Presión 1019 hPa
Visibilidad 10 km o más
sin nubes por debajo de 1500 m y sin presencia de cumulonimbus.

METAR: LFMH 201830Z AUTO 35006KT CAVOK 26/13 Q1019 NOSIG

Hora: 20:41 (18:41 UTC)

Pronóstico

El informe se hizo hace 4 horas y 41 minutos, a las 14:00 UTC
Pronóstico válido del 20 a las 15 UTC al 21 a las 15 UTC
Viento 2 kt con dirección variable
Visibilidad 10 km o más
sin nubes por debajo de 1500 m y sin presencia de cumulonimbus.

TAF: LFMH 201400Z 2015/2115 VRB02KT CAVOK

Observaciones y pronósticos meteorológicos de más de 4000 aeropuertos (mensajes METAR y TAF).

Los puntos amarillos y rojos representan las estaciones disponibles.

Ponga el ratón en el punto deseado para ver el nombre de la estación.

Haga clic para ver las observaciones y los pronósticos meteorológicos.

Para cambiar el mapa : haga clic en los botones verdes con una cruz de color negro para hacer un zoom, en el botón verde con un guión para alejar o en las flechas verdes para mapas adyacentes.


METAR-TAF: